Main page
METAR-TAF:

METAR-TAF

Airports :

Sharurah Domestic Airport

Sharurah, Saudi Arabia

latitude: 17-28N, longitude: 047-07E, elevation: 720 m

Current weather observation

The report was made 57 minutes ago, at 11:00 UTC
Wind 8 kt from the North/Northeast
Temperature 40°C
Humidity 6%
Pressure 1007 hPa
Visibility: 4000 m
widespread dust

METAR: OESH 121100Z 03008KT 4000 DU NSC 40/M04 Q1007 NOSIG

Time: 14:57 (11:57 UTC)

Forecast

The report was made 57 minutes ago, at 11:00 UTC
Forecast valid from 12 at 12 UTC to 13 at 18 UTC
Wind 15 kt from the North/Northeast
Visibility: 5000 m
Blowing dust
Temporary
from 12 at 12 UTC to 12 at 18 UTC
Visibility: 2500 m
Becoming
from 12 at 18 UTC to 12 at 20 UTC
Wind 3 kt from variable directions

TAF: OESH 121100Z 1212/1318 02015KT 5000 BLDU NSC TEMPO 1212/1218 2500 BECMG 1218/1220 VRB03KT

Weather observations and forecasts of more than 4000 airports (METAR and TAF reports).

The available stations are represented by yellow and red dots on the map.

Hover mouse over dot to see the name of the station.

Then click to see weather observations and forecasts.

To change the map : click on the green buttons with a black cross to zoom in, on the green button with a dash to zoom out, or on the green arrows for adjacent maps.


METAR-TAF: